createdAt,value
2018-02-08T00:00:19.842Z,19.63
2018-02-08T00:02:48.144Z,18.37
2018-02-08T00:05:16.411Z,19.90
2018-02-08T00:07:44.709Z,20.67
2018-02-08T00:10:12.984Z,19.65
2018-02-08T00:12:42.250Z,19.58
2018-02-08T00:15:10.540Z,20.28
2018-02-08T00:17:38.838Z,23.45
2018-02-08T00:20:07.107Z,21.28
2018-02-08T00:22:45.299Z,19.38
2018-02-08T00:25:13.559Z,21.03
2018-02-08T00:27:42.817Z,22.08
2018-02-08T00:30:11.083Z,19.00
2018-02-08T00:32:38.601Z,20.13
2018-02-08T00:35:06.857Z,21.85
2018-02-08T00:37:35.142Z,21.17
2018-02-08T00:40:03.402Z,20.82
2018-02-08T00:42:32.639Z,22.10
2018-02-08T00:45:00.927Z,22.55
2018-02-08T00:47:41.602Z,23.42
2018-02-08T00:50:09.895Z,20.32
2018-02-08T00:52:38.186Z,19.53
2018-02-08T00:55:06.478Z,20.22
2018-02-08T00:57:36.678Z,21.68
2018-02-08T01:00:04.934Z,19.40
2018-02-08T01:02:33.245Z,21.85
2018-02-08T01:05:01.493Z,21.32
2018-02-08T01:07:29.762Z,19.58
2018-02-08T01:09:59.439Z,21.07
2018-02-08T01:12:28.702Z,20.58
2018-02-08T01:14:56.994Z,19.95
2018-02-08T01:17:26.179Z,22.20
2018-02-08T01:19:54.478Z,22.78
2018-02-08T01:22:22.729Z,19.98
2018-02-08T01:24:51.031Z,22.18
2018-02-08T01:27:22.266Z,19.13
2018-02-08T01:29:50.554Z,21.27
2018-02-08T01:32:20.828Z,21.68
2018-02-08T01:34:48.329Z,20.70
2018-02-08T01:37:16.626Z,22.35
2018-02-08T01:39:44.923Z,22.33
2018-02-08T01:42:13.219Z,24.20
2018-02-08T01:44:41.478Z,23.80
2018-02-08T01:47:09.738Z,23.02
2018-02-08T01:49:46.885Z,24.13
2018-02-08T01:52:15.189Z,22.83
2018-02-08T01:54:43.450Z,22.65
2018-02-08T01:57:11.706Z,23.83
2018-02-08T01:59:40.055Z,22.53
2018-02-08T02:02:07.546Z,24.85
2018-02-08T02:04:35.843Z,24.15
2018-02-08T02:07:04.159Z,24.27
2018-02-08T02:09:32.419Z,24.10
2018-02-08T02:12:00.709Z,23.97
2018-02-08T02:14:30.970Z,25.75
2018-02-08T02:17:00.371Z,23.25
2018-02-08T02:19:29.638Z,24.43
2018-02-08T02:21:59.079Z,24.87
2018-02-08T02:24:28.073Z,25.70
2018-02-08T02:26:56.367Z,24.83
2018-02-08T02:29:31.734Z,24.38
2018-02-08T02:32:00.052Z,25.08
2018-02-08T02:34:29.502Z,23.92
2018-02-08T02:36:58.859Z,25.57
2018-02-08T02:39:27.170Z,23.55
2018-02-08T02:41:55.426Z,22.53
2018-02-08T02:44:28.039Z,23.70
2018-02-08T02:46:56.309Z,23.25
2018-02-08T02:49:35.314Z,21.12
2018-02-08T02:52:03.570Z,21.02
2018-02-08T02:54:32.894Z,21.23
2018-02-08T02:57:00.386Z,24.28
2018-02-08T02:59:33.695Z,20.68
2018-02-08T03:02:01.202Z,22.07
2018-02-08T03:04:30.167Z,23.30
2018-02-08T03:06:59.430Z,23.30
2018-02-08T03:09:29.650Z,24.20
2018-02-08T03:11:59.010Z,23.35
2018-02-08T03:14:28.896Z,25.95
2018-02-08T03:16:57.243Z,24.48
2018-02-08T03:19:25.530Z,24.18
2018-02-08T03:21:54.779Z,22.65
2018-02-08T03:24:23.038Z,23.60
2018-02-08T03:26:52.320Z,21.85
2018-02-08T03:29:20.597Z,23.85
2018-02-08T03:31:48.882Z,24.38
2018-02-08T03:34:27.030Z,23.48
2018-02-08T03:36:55.289Z,23.68
2018-02-08T03:39:36.633Z,23.67
2018-02-08T03:42:04.122Z,24.13
2018-02-08T03:44:32.418Z,21.85
2018-02-08T03:46:59.916Z,24.60
2018-02-08T03:49:29.698Z,25.58
2018-02-08T03:52:01.679Z,23.28
2018-02-08T03:54:29.954Z,23.27
2018-02-08T03:56:59.426Z,24.05
2018-02-08T03:59:27.678Z,24.28
2018-02-08T04:02:02.756Z,24.17
2018-02-08T04:04:31.010Z,23.47
2018-02-08T04:07:00.270Z,22.85
2018-02-08T04:09:28.559Z,24.28
2018-02-08T04:11:58.850Z,25.73
2018-02-08T04:14:27.134Z,23.77
2018-02-08T04:16:58.633Z,24.83
2018-02-08T04:19:26.894Z,22.53
2018-02-08T04:21:55.182Z,22.88
2018-02-08T04:24:23.442Z,22.28
2018-02-08T04:26:54.814Z,20.02
2018-02-08T04:29:23.088Z,20.08
2018-02-08T04:31:52.350Z,22.48
2018-02-08T04:34:20.606Z,21.63
2018-02-08T04:36:58.639Z,21.32
2018-02-08T04:42:41.246Z,20.75
2018-02-08T04:45:35.555Z,19.47
2018-02-08T04:48:07.538Z,19.47
2018-02-08T04:50:35.831Z,21.98
2018-02-08T04:53:04.122Z,20.58
2018-02-08T04:55:38.396Z,22.38
2018-02-08T04:58:06.686Z,21.17
2018-02-08T05:00:34.946Z,20.05
2018-02-08T05:03:03.205Z,20.40
2018-02-08T05:05:31.494Z,20.18
2018-02-08T05:07:59.757Z,19.20
2018-02-08T05:10:29.969Z,20.98
2018-02-08T05:12:59.230Z,20.60
2018-02-08T05:15:27.539Z,21.38
2018-02-08T05:17:55.799Z,20.97
2018-02-08T05:20:24.055Z,17.98
2018-02-08T05:22:52.351Z,18.50
2018-02-08T05:25:26.443Z,19.55
2018-02-08T05:27:54.726Z,18.62
2018-02-08T05:30:23.019Z,23.17
2018-02-08T05:32:51.277Z,19.67
2018-02-08T05:35:19.576Z,19.15
2018-02-08T05:37:47.867Z,18.98
2018-02-08T05:40:19.839Z,20.53
2018-02-08T05:42:48.134Z,20.13
2018-02-08T05:45:18.413Z,19.35
2018-02-08T05:47:46.674Z,20.57
2018-02-08T05:50:20.051Z,20.30
2018-02-08T05:52:48.308Z,20.30
2018-02-08T05:55:32.358Z,18.68
2018-02-08T05:58:00.614Z,21.33
2018-02-08T06:00:30.023Z,20.98
2018-02-08T06:03:01.306Z,21.98
2018-02-08T06:05:29.595Z,22.32
2018-02-08T06:07:58.983Z,20.30
2018-02-08T06:10:28.842Z,21.25
2018-02-08T06:12:59.194Z,20.37
2018-02-08T06:15:28.148Z,22.47
2018-02-08T06:17:59.777Z,18.53
2018-02-08T06:20:29.513Z,20.22
2018-02-08T06:22:59.779Z,21.70
2018-02-08T06:25:29.407Z,20.97
2018-02-08T06:28:11.696Z,21.03
2018-02-08T06:30:39.997Z,22.82
2018-02-08T06:33:08.254Z,22.42
2018-02-08T06:35:41.651Z,21.22
2018-02-08T06:38:09.906Z,21.70
2018-02-08T06:40:38.203Z,20.12
2018-02-08T06:43:06.498Z,19.97
2018-02-08T06:45:34.754Z,20.98
2018-02-08T06:48:03.013Z,19.63
2018-02-08T06:50:31.313Z,20.22
2018-02-08T06:53:01.930Z,21.20
2018-02-08T06:55:30.222Z,21.28
2018-02-08T06:58:00.477Z,21.78
2018-02-08T07:00:29.453Z,19.92
2018-02-08T07:02:59.650Z,20.28
2018-02-08T07:05:29.123Z,21.42
2018-02-08T07:07:58.090Z,22.50
2018-02-08T07:10:29.638Z,21.48
2018-02-08T07:12:58.957Z,21.95
2018-02-08T07:15:27.221Z,21.58
2018-02-08T07:17:55.544Z,20.87
2018-02-08T07:20:24.781Z,21.95
2018-02-08T07:22:53.039Z,19.88
2018-02-08T07:25:34.147Z,20.83
2018-02-08T07:28:02.433Z,19.77
2018-02-08T07:30:30.695Z,22.27
2018-02-08T07:33:00.346Z,21.37
2018-02-08T07:35:28.607Z,22.78
2018-02-08T07:37:56.873Z,21.52
2018-02-08T07:40:25.166Z,21.92
2018-02-08T07:42:53.463Z,20.68
2018-02-08T07:45:23.689Z,23.68
2018-02-08T07:47:51.955Z,21.08
2018-02-08T07:50:20.241Z,25.12
2018-02-08T07:52:48.499Z,21.35
2018-02-08T07:55:16.794Z,23.88
2018-02-08T07:57:45.060Z,23.18
2018-02-08T08:00:13.326Z,23.43
2018-02-08T08:02:41.618Z,23.62
2018-02-08T08:05:16.361Z,23.20
2018-02-08T08:07:44.647Z,23.15
2018-02-08T08:10:12.959Z,24.80
2018-02-08T08:12:42.182Z,23.68
2018-02-08T08:15:10.442Z,26.00
2018-02-08T08:17:38.733Z,25.62
2018-02-08T08:20:07.028Z,24.35
2018-02-08T08:22:40.218Z,23.13
2018-02-08T08:25:08.536Z,25.40
2018-02-08T08:27:37.794Z,22.28
2018-02-08T08:30:06.051Z,24.68
2018-02-08T08:32:35.274Z,24.37
2018-02-08T08:35:03.562Z,23.45
2018-02-08T08:37:31.866Z,22.35
2018-02-08T08:40:00.127Z,25.82
2018-02-08T08:42:38.313Z,25.58
2018-02-08T08:45:06.573Z,25.62
2018-02-08T08:47:34.862Z,25.90
2018-02-08T08:50:03.156Z,26.67
2018-02-08T08:52:32.358Z,25.37
2018-02-08T08:54:59.902Z,25.22
2018-02-08T08:57:31.727Z,27.37
2018-02-08T09:00:00.040Z,27.62
2018-02-08T09:02:28.530Z,26.32
2018-02-08T09:04:56.793Z,27.83
2018-02-08T09:07:30.297Z,26.67
2018-02-08T09:09:58.563Z,29.93
2018-02-08T09:12:26.838Z,30.12
2018-02-08T09:14:55.138Z,28.72
2018-02-08T09:17:23.397Z,30.17
2018-02-08T09:19:51.672Z,26.85
2018-02-08T09:22:19.937Z,31.30
2018-02-08T09:24:48.237Z,26.35
2018-02-08T09:27:16.495Z,26.53
2018-02-08T09:29:44.761Z,27.53
2018-02-08T09:32:13.050Z,27.20
2018-02-08T09:34:41.343Z,24.53
2018-02-08T09:37:09.642Z,23.82
2018-02-08T09:39:39.846Z,28.77
2018-02-08T09:42:08.126Z,29.47
2018-02-08T09:44:48.835Z,28.90
2018-02-08T09:47:17.135Z,27.25
2018-02-08T09:49:45.399Z,27.92
2018-02-08T09:52:13.698Z,26.78
2018-02-08T09:54:52.222Z,26.03
2018-02-08T09:57:20.510Z,28.45
2018-02-08T09:59:49.774Z,27.23
2018-02-08T10:02:18.047Z,30.28
2018-02-08T10:04:48.726Z,28.25
2018-02-08T10:07:17.008Z,26.93
2018-02-08T10:09:53.613Z,28.03
2018-02-08T10:12:21.873Z,30.80
2018-02-08T10:14:51.171Z,27.67
2018-02-08T10:17:19.440Z,26.22
2018-02-08T10:19:55.630Z,27.98
2018-02-08T10:22:23.899Z,28.60
2018-02-08T10:24:54.942Z,27.88
2018-02-08T10:27:23.213Z,27.32
2018-02-08T10:30:01.554Z,26.60
2018-02-08T10:32:29.854Z,25.78
2018-02-08T10:34:59.550Z,27.38
2018-02-08T10:37:29.003Z,24.78
2018-02-08T10:39:58.440Z,28.97
2018-02-08T10:42:26.738Z,25.17
2018-02-08T10:44:55.007Z,24.87
2018-02-08T10:47:23.266Z,23.63
2018-02-08T10:49:56.717Z,23.58
2018-02-08T10:52:25.017Z,22.85
2018-02-08T10:55:03.652Z,21.90
2018-02-08T10:57:31.915Z,21.35
2018-02-08T11:00:03.148Z,21.73
2018-02-08T11:02:31.438Z,21.67
2018-02-08T11:05:00.060Z,23.38
2018-02-08T11:07:29.213Z,22.70
2018-02-08T11:09:58.287Z,22.65
2018-02-08T11:12:26.566Z,24.27
2018-02-08T11:14:54.068Z,22.98
2018-02-08T11:17:22.371Z,23.00
2018-02-08T11:19:50.635Z,21.68
2018-02-08T11:22:18.907Z,23.07
2018-02-08T11:24:47.211Z,20.27
2018-02-08T11:27:15.469Z,21.32
2018-02-08T11:29:43.779Z,22.26
2018-02-08T11:32:12.038Z,24.42
2018-02-08T11:34:39.526Z,24.24
2018-02-08T11:37:07.806Z,22.64
2018-02-08T11:39:36.068Z,21.26
2018-02-08T11:42:04.371Z,22.68
2018-02-08T11:44:32.630Z,21.78
2018-02-08T11:47:00.892Z,22.26
2018-02-08T11:49:30.034Z,21.16
2018-02-08T11:51:59.191Z,21.40
2018-02-08T11:54:28.081Z,20.42
2018-02-08T11:56:56.387Z,22.74
2018-02-08T11:59:24.658Z,20.13
2018-02-08T12:01:52.927Z,21.03
2018-02-08T12:04:23.522Z,19.02
2018-02-08T12:06:51.814Z,20.62
2018-02-08T12:09:20.077Z,22.63
2018-02-08T12:11:48.362Z,21.18
2018-02-08T12:14:19.770Z,19.96
2018-02-08T12:16:48.022Z,19.82
2018-02-08T12:19:16.329Z,19.94
2018-02-08T12:21:44.590Z,20.80
2018-02-08T12:24:12.845Z,19.42
2018-02-08T12:26:41.134Z,19.06
2018-02-08T12:29:09.394Z,20.20
2018-02-08T12:31:37.689Z,19.12
2018-02-08T12:34:05.951Z,19.06
2018-02-08T12:36:34.238Z,21.48
2018-02-08T12:39:02.541Z,20.50
2018-02-08T12:41:30.799Z,19.70
2018-02-08T12:44:00.290Z,19.88
2018-02-08T12:46:28.586Z,19.16
2018-02-08T12:48:56.846Z,19.62
2018-02-08T12:51:25.149Z,20.62
2018-02-08T12:53:53.403Z,20.16
2018-02-08T12:56:21.696Z,20.70
2018-02-08T12:58:49.950Z,18.20
2018-02-08T13:01:18.241Z,17.06
2018-02-08T13:03:46.502Z,18.06
2018-02-08T13:06:14.799Z,18.46
2018-02-08T13:08:43.067Z,17.64
2018-02-08T13:11:11.339Z,20.60
2018-02-08T13:13:39.628Z,19.74
2018-02-08T13:16:07.918Z,17.82
2018-02-08T13:18:36.191Z,19.18
2018-02-08T13:21:04.471Z,20.94
2018-02-08T13:23:33.736Z,20.00
2018-02-08T13:26:01.993Z,20.48
2018-02-08T13:28:33.718Z,21.64
2018-02-08T13:31:02.024Z,19.96
2018-02-08T13:33:30.294Z,21.44
2018-02-08T13:35:58.550Z,20.50
2018-02-08T13:38:37.334Z,18.12
2018-02-08T13:41:05.598Z,19.54
2018-02-08T13:43:33.574Z,18.60
2018-02-08T13:46:01.878Z,19.72
2018-02-08T13:48:33.847Z,20.80
2018-02-08T13:51:22.688Z,17.90
2018-02-08T13:54:05.819Z,19.46
2018-02-08T13:56:34.207Z,19.74
2018-02-08T13:59:14.630Z,18.86
2018-02-08T14:04:34.290Z,20.32
2018-02-08T14:07:02.575Z,19.40
2018-02-08T14:09:30.866Z,18.74
2018-02-08T14:11:59.364Z,20.26
2018-02-08T14:14:27.683Z,21.02
2018-02-08T14:17:09.618Z,19.56
2018-02-08T14:19:37.918Z,20.98
2018-02-08T14:22:29.093Z,20.38
2018-02-08T14:24:59.105Z,22.78
2018-02-08T14:27:31.990Z,20.52
2018-02-08T14:30:00.274Z,18.48
2018-02-08T14:32:33.152Z,19.04
2018-02-08T14:35:01.414Z,17.14
2018-02-08T14:37:50.163Z,17.28
2018-02-08T14:40:18.422Z,17.40
2018-02-08T14:42:46.722Z,17.84
2018-02-08T14:45:14.978Z,15.92
2018-02-08T14:47:43.246Z,16.88
2018-02-08T14:50:11.538Z,18.74
2018-02-08T14:52:52.836Z,18.96
2018-02-08T14:55:21.139Z,19.56
2018-02-08T14:57:49.402Z,18.40
2018-02-08T15:00:17.682Z,20.64
2018-02-08T15:02:49.622Z,19.66
2018-02-08T15:05:17.874Z,19.62
2018-02-08T15:07:49.706Z,18.68
2018-02-08T15:10:17.974Z,18.94
2018-02-08T15:12:47.235Z,20.70
2018-02-08T15:15:15.490Z,18.46
2018-02-08T15:17:43.790Z,21.50
2018-02-08T15:20:15.794Z,19.10
2018-02-08T15:22:44.090Z,20.14
2018-02-08T15:25:14.358Z,18.22
2018-02-08T15:27:42.626Z,19.24
2018-02-08T15:30:12.926Z,20.10
2018-02-08T15:32:41.183Z,19.26
2018-02-08T15:35:15.768Z,19.74
2018-02-08T15:37:43.275Z,19.78
2018-02-08T15:40:21.575Z,21.26
2018-02-08T15:42:49.843Z,20.14
2018-02-08T15:45:18.135Z,20.70
2018-02-08T15:47:46.626Z,19.68
2018-02-08T15:50:16.863Z,20.14
2018-02-08T15:52:45.119Z,22.04
2018-02-08T15:55:14.354Z,22.90
2018-02-08T15:57:42.635Z,22.14
2018-02-08T16:00:10.894Z,22.14
2018-02-08T16:02:56.014Z,21.52
2018-02-08T16:05:24.306Z,24.80
2018-02-08T16:08:11.576Z,23.42
2018-02-08T16:10:39.838Z,23.60
2018-02-08T16:13:08.133Z,23.68
2018-02-08T16:15:35.624Z,26.26
2018-02-08T16:18:04.862Z,22.88
2018-02-08T16:20:33.121Z,26.38
2018-02-08T16:23:01.422Z,26.18
2018-02-08T16:25:29.687Z,26.70
2018-02-08T16:27:59.223Z,24.88
2018-02-08T16:30:33.022Z,25.54
2018-02-08T16:33:01.307Z,25.88
2018-02-08T16:35:30.397Z,27.42
2018-02-08T16:37:58.650Z,26.86
2018-02-08T16:40:26.947Z,26.86
2018-02-08T16:42:55.217Z,27.28
2018-02-08T16:45:23.486Z,26.16
2018-02-08T16:47:57.758Z,28.72
2018-02-08T16:50:26.022Z,26.98
2018-02-08T16:52:58.975Z,28.16
2018-02-08T16:55:27.229Z,27.30
2018-02-08T16:57:59.774Z,26.42
2018-02-08T17:00:29.010Z,28.56
2018-02-08T17:03:00.682Z,25.58
2018-02-08T17:05:29.802Z,28.76
2018-02-08T17:07:59.710Z,26.70
2018-02-08T17:10:28.607Z,25.12
2018-02-08T17:12:56.902Z,26.90
2018-02-08T17:15:25.158Z,26.00
2018-02-08T17:17:57.114Z,27.06
2018-02-08T17:20:25.370Z,27.62
2018-02-08T17:22:57.118Z,24.90
2018-02-08T17:25:25.374Z,24.54
2018-02-08T17:27:53.667Z,25.64
2018-02-08T17:30:21.970Z,23.92
2018-02-08T17:32:53.482Z,25.53
2018-02-08T17:35:21.802Z,24.58
2018-02-08T17:37:53.794Z,22.86
2018-02-08T17:40:21.336Z,24.97
2018-02-08T17:42:49.638Z,22.60
2018-02-08T17:45:17.895Z,25.05
2018-02-08T17:47:49.815Z,25.00
2018-02-08T17:50:18.078Z,26.78
2018-02-08T17:52:46.369Z,26.90
2018-02-08T17:55:14.632Z,24.54
2018-02-08T17:57:48.653Z,25.93
2018-02-08T18:00:16.909Z,24.20
2018-02-08T18:02:45.210Z,24.68
2018-02-08T18:05:13.476Z,26.56
2018-02-08T18:07:41.734Z,24.60
2018-02-08T18:10:10.046Z,24.54
2018-02-08T18:12:38.295Z,24.58
2018-02-08T18:15:08.494Z,24.72
2018-02-08T18:17:36.756Z,24.88
2018-02-08T18:20:06.032Z,24.36
2018-02-08T18:22:34.299Z,24.62
2018-02-08T18:25:06.962Z,26.64
2018-02-08T18:27:35.224Z,25.86
2018-02-08T18:30:21.457Z,24.74
2018-02-08T18:32:49.720Z,26.15
2018-02-08T18:35:17.242Z,26.40
2018-02-08T18:37:45.498Z,27.75
2018-02-08T18:40:13.795Z,25.90
2018-02-08T18:42:45.991Z,24.40
2018-02-08T18:45:14.278Z,22.45
2018-02-08T18:47:43.575Z,23.95
2018-02-08T18:50:11.835Z,26.38
2018-02-08T18:52:40.131Z,24.25
2018-02-08T18:55:08.394Z,25.63
2018-02-08T18:57:37.684Z,25.03
2018-02-08T19:00:05.974Z,23.33
2018-02-08T19:02:35.227Z,24.53
2018-02-08T19:05:03.526Z,24.88
2018-02-08T19:07:32.754Z,26.78
2018-02-08T19:10:01.042Z,26.50
2018-02-08T19:12:31.246Z,26.10
2018-02-08T19:15:00.288Z,25.68
2018-02-08T19:17:32.667Z,26.88
2018-02-08T19:20:00.950Z,26.34
2018-02-08T19:22:35.598Z,24.52
2018-02-08T19:25:03.871Z,23.97
2018-02-08T19:27:31.410Z,26.03
2018-02-08T19:30:00.031Z,25.13
2018-02-08T19:32:28.186Z,26.53
2018-02-08T19:34:58.137Z,25.85
2018-02-08T19:37:26.430Z,25.43
2018-02-08T19:39:54.691Z,23.48
2018-02-08T19:42:22.955Z,28.23
2018-02-08T19:44:52.213Z,24.50
2018-02-08T19:47:20.474Z,24.75
2018-02-08T19:49:48.806Z,27.42
2018-02-08T19:52:17.089Z,27.88
2018-02-08T19:54:47.356Z,23.17
2018-02-08T19:57:15.634Z,26.08
2018-02-08T19:59:43.902Z,27.00
2018-02-08T20:02:12.207Z,25.17
2018-02-08T20:04:40.475Z,26.82
2018-02-08T20:07:08.778Z,27.95
2018-02-08T20:09:38.972Z,25.40
2018-02-08T20:12:07.279Z,26.87
2018-02-08T20:14:39.483Z,24.17
2018-02-08T20:17:14.555Z,26.53
2018-02-08T20:19:42.851Z,24.42
2018-02-08T20:22:11.117Z,25.68
2018-02-08T20:24:39.421Z,26.73
2018-02-08T20:27:09.623Z,25.43
2018-02-08T20:29:37.935Z,24.77
2018-02-08T20:32:06.214Z,23.82
2018-02-08T20:34:34.482Z,25.52
2018-02-08T20:37:02.787Z,25.63
2018-02-08T20:39:31.049Z,25.17
2018-02-08T20:42:00.151Z,27.05
2018-02-08T20:44:32.822Z,26.40
2018-02-08T20:47:01.157Z,26.83
2018-02-08T20:49:30.123Z,24.95
2018-02-08T20:51:59.271Z,27.23
2018-02-08T20:54:28.356Z,26.58
2018-02-08T20:56:56.627Z,22.80
2018-02-08T20:59:24.994Z,22.93
2018-02-08T21:01:52.530Z,24.75
2018-02-08T21:04:20.823Z,24.73
2018-02-08T21:06:48.342Z,23.88
2018-02-08T21:09:16.637Z,26.77
2018-02-08T21:11:45.810Z,24.12
2018-02-08T21:14:14.091Z,24.43
2018-02-08T21:16:43.378Z,27.48
2018-02-08T21:19:11.645Z,27.27
2018-02-08T21:21:39.177Z,23.83
2018-02-08T21:24:07.451Z,25.85
2018-02-08T21:26:34.982Z,23.10
2018-02-08T21:29:13.715Z,27.27
2018-02-08T21:31:41.266Z,27.52
2018-02-08T21:34:09.530Z,26.23
2018-02-08T21:36:37.826Z,27.62
2018-02-08T21:39:06.094Z,28.28
2018-02-08T21:41:34.395Z,28.53
2018-02-08T21:44:02.663Z,27.82
2018-02-08T21:46:30.978Z,28.02
2018-02-08T21:49:06.455Z,29.02
2018-02-08T21:51:34.757Z,28.78
2018-02-08T21:54:04.054Z,31.43
2018-02-08T21:56:32.318Z,28.42
2018-02-08T21:59:01.578Z,30.15
2018-02-08T22:01:29.874Z,29.00
2018-02-08T22:04:07.894Z,31.43
2018-02-08T22:06:36.189Z,27.67
2018-02-08T22:09:10.194Z,27.45
2018-02-08T22:11:38.496Z,28.72
2018-02-08T22:14:06.938Z,29.88
2018-02-08T22:16:35.242Z,28.93
2018-02-08T22:19:10.207Z,29.62
2018-02-08T22:21:38.470Z,29.78
2018-02-08T22:24:07.719Z,30.62
2018-02-08T22:26:36.019Z,29.90
2018-02-08T22:29:04.281Z,32.23
2018-02-08T22:31:31.789Z,31.90
2018-02-08T22:34:00.086Z,30.78
2018-02-08T22:36:29.199Z,28.55
2018-02-08T22:39:01.815Z,29.92
2018-02-08T22:41:30.078Z,30.90
2018-02-08T22:44:03.134Z,31.62
2018-02-08T22:46:31.402Z,30.60
2018-02-08T22:49:00.670Z,30.13
2018-02-08T22:51:30.158Z,33.02
2018-02-08T22:54:00.446Z,32.22
2018-02-08T22:56:28.958Z,32.20
2018-02-08T22:58:57.253Z,36.23
2018-02-08T23:01:25.573Z,37.77
2018-02-08T23:03:58.212Z,34.13
2018-02-08T23:06:26.474Z,36.57
2018-02-08T23:08:56.713Z,37.33
2018-02-08T23:11:25.011Z,38.90
2018-02-08T23:13:53.283Z,40.83
2018-02-08T23:16:21.545Z,42.75
2018-02-08T23:19:01.466Z,37.92
2018-02-08T23:21:29.758Z,38.87
2018-02-08T23:24:00.254Z,39.12
2018-02-08T23:26:28.522Z,39.00
2018-02-08T23:29:02.876Z,40.15
2018-02-08T23:31:31.143Z,42.30
2018-02-08T23:34:14.802Z,41.60
2018-02-08T23:36:43.069Z,42.58
2018-02-08T23:39:15.482Z,40.12
2018-02-08T23:41:43.781Z,42.27
2018-02-08T23:44:12.982Z,42.80
2018-02-08T23:46:41.282Z,41.25
2018-02-08T23:49:10.537Z,42.92
2018-02-08T23:51:38.806Z,42.07
2018-02-08T23:54:10.717Z,42.47
2018-02-08T23:56:39.010Z,41.85
2018-02-08T23:59:13.506Z,40.50
